sensor_id;sensor_type;location;lat;lon;timestamp;P1;durP1;ratioP1;P2;durP2;ratioP2
2259;SDS011;333;48.800;9.530;2022-09-09T00:00:50;2.50;;;1.60;;
2259;SDS011;333;48.800;9.530;2022-09-09T00:03:22;3.10;;;2.40;;
2259;SDS011;333;48.800;9.530;2022-09-09T00:05:53;3.90;;;2.73;;
2259;SDS011;333;48.800;9.530;2022-09-09T00:08:27;3.83;;;2.00;;
2259;SDS011;333;48.800;9.530;2022-09-09T00:10:59;6.23;;;2.37;;
2259;SDS011;333;48.800;9.530;2022-09-09T00:13:30;2.80;;;2.00;;
2259;SDS011;333;48.800;9.530;2022-09-09T00:16:01;3.17;;;2.40;;
2259;SDS011;333;48.800;9.530;2022-09-09T00:18:31;4.20;;;2.47;;
2259;SDS011;333;48.800;9.530;2022-09-09T00:21:02;2.77;;;2.40;;
2259;SDS011;333;48.800;9.530;2022-09-09T00:23:34;2.17;;;1.97;;
2259;SDS011;333;48.800;9.530;2022-09-09T00:26:04;3.27;;;2.80;;
2259;SDS011;333;48.800;9.530;2022-09-09T00:28:35;9.93;;;2.57;;
2259;SDS011;333;48.800;9.530;2022-09-09T00:31:08;7.43;;;2.30;;
2259;SDS011;333;48.800;9.530;2022-09-09T00:33:37;3.47;;;2.70;;
2259;SDS011;333;48.800;9.530;2022-09-09T00:36:07;4.00;;;2.87;;
2259;SDS011;333;48.800;9.530;2022-09-09T00:38:37;2.43;;;2.23;;
2259;SDS011;333;48.800;9.530;2022-09-09T00:41:06;3.00;;;2.67;;
2259;SDS011;333;48.800;9.530;2022-09-09T00:43:37;5.77;;;3.13;;
2259;SDS011;333;48.800;9.530;2022-09-09T00:48:56;2.63;;;2.43;;
2259;SDS011;333;48.800;9.530;2022-09-09T00:51:26;3.40;;;2.93;;
2259;SDS011;333;48.800;9.530;2022-09-09T00:54:01;2.07;;;1.93;;
2259;SDS011;333;48.800;9.530;2022-09-09T00:56:36;2.67;;;2.30;;
2259;SDS011;333;48.800;9.530;2022-09-09T00:59:10;2.37;;;2.17;;
2259;SDS011;333;48.800;9.530;2022-09-09T01:01:41;3.37;;;2.43;;
2259;SDS011;333;48.800;9.530;2022-09-09T01:04:09;3.43;;;2.37;;
2259;SDS011;333;48.800;9.530;2022-09-09T01:06:41;2.27;;;1.97;;
2259;SDS011;333;48.800;9.530;2022-09-09T01:09:14;2.67;;;2.47;;
2259;SDS011;333;48.800;9.530;2022-09-09T01:11:47;1.97;;;1.87;;
2259;SDS011;333;48.800;9.530;2022-09-09T01:14:20;4.60;;;2.50;;
2259;SDS011;333;48.800;9.530;2022-09-09T01:16:51;3.40;;;2.00;;
2259;SDS011;333;48.800;9.530;2022-09-09T01:19:24;2.30;;;2.10;;
2259;SDS011;333;48.800;9.530;2022-09-09T01:21:56;3.00;;;2.50;;
2259;SDS011;333;48.800;9.530;2022-09-09T01:24:30;5.03;;;2.23;;
2259;SDS011;333;48.800;9.530;2022-09-09T01:27:04;2.93;;;2.00;;
2259;SDS011;333;48.800;9.530;2022-09-09T01:29:32;3.33;;;2.70;;
2259;SDS011;333;48.800;9.530;2022-09-09T01:32:00;2.20;;;2.00;;
2259;SDS011;333;48.800;9.530;2022-09-09T01:34:29;3.00;;;1.90;;
2259;SDS011;333;48.800;9.530;2022-09-09T01:36:59;2.27;;;1.87;;
2259;SDS011;333;48.800;9.530;2022-09-09T01:39:29;3.40;;;2.23;;
2259;SDS011;333;48.800;9.530;2022-09-09T01:41:57;2.73;;;2.00;;
2259;SDS011;333;48.800;9.530;2022-09-09T01:44:26;2.13;;;1.93;;
2259;SDS011;333;48.800;9.530;2022-09-09T01:46:54;6.43;;;2.43;;
2259;SDS011;333;48.800;9.530;2022-09-09T01:49:21;2.70;;;2.33;;
2259;SDS011;333;48.800;9.530;2022-09-09T01:51:49;6.80;;;2.27;;
2259;SDS011;333;48.800;9.530;2022-09-09T01:54:17;4.97;;;2.30;;
2259;SDS011;333;48.800;9.530;2022-09-09T01:56:47;3.77;;;2.20;;
2259;SDS011;333;48.800;9.530;2022-09-09T01:59:24;6.03;;;2.33;;
2259;SDS011;333;48.800;9.530;2022-09-09T02:02:00;3.70;;;2.50;;
2259;SDS011;333;48.800;9.530;2022-09-09T02:04:35;3.10;;;2.13;;
2259;SDS011;333;48.800;9.530;2022-09-09T02:07:03;2.60;;;1.87;;
2259;SDS011;333;48.800;9.530;2022-09-09T02:09:32;2.33;;;1.97;;
2259;SDS011;333;48.800;9.530;2022-09-09T02:12:01;1.70;;;1.60;;
2259;SDS011;333;48.800;9.530;2022-09-09T02:14:34;3.43;;;1.87;;
2259;SDS011;333;48.800;9.530;2022-09-09T02:17:03;1.63;;;1.53;;
2259;SDS011;333;48.800;9.530;2022-09-09T02:19:31;3.47;;;1.90;;
2259;SDS011;333;48.800;9.530;2022-09-09T02:21:59;2.60;;;1.57;;
2259;SDS011;333;48.800;9.530;2022-09-09T02:24:28;2.17;;;1.97;;
2259;SDS011;333;48.800;9.530;2022-09-09T02:26:56;1.97;;;1.50;;
2259;SDS011;333;48.800;9.530;2022-09-09T02:29:26;1.87;;;1.77;;
2259;SDS011;333;48.800;9.530;2022-09-09T02:31:55;1.70;;;1.60;;
2259;SDS011;333;48.800;9.530;2022-09-09T02:34:26;3.00;;;1.83;;
2259;SDS011;333;48.800;9.530;2022-09-09T02:36:54;2.30;;;1.63;;
2259;SDS011;333;48.800;9.530;2022-09-09T02:39:22;5.30;;;2.20;;
2259;SDS011;333;48.800;9.530;2022-09-09T02:41:49;2.43;;;2.23;;
2259;SDS011;333;48.800;9.530;2022-09-09T02:44:17;2.57;;;2.20;;
2259;SDS011;333;48.800;9.530;2022-09-09T02:49:31;2.83;;;2.37;;
2259;SDS011;333;48.800;9.530;2022-09-09T02:52:02;4.67;;;2.50;;
2259;SDS011;333;48.800;9.530;2022-09-09T02:54:32;3.63;;;2.43;;
2259;SDS011;333;48.800;9.530;2022-09-09T02:57:01;2.20;;;2.07;;
2259;SDS011;333;48.800;9.530;2022-09-09T02:59:30;2.33;;;2.13;;
2259;SDS011;333;48.800;9.530;2022-09-09T03:01:58;1.97;;;1.83;;
2259;SDS011;333;48.800;9.530;2022-09-09T03:04:26;1.90;;;1.80;;
2259;SDS011;333;48.800;9.530;2022-09-09T03:06:54;4.50;;;2.30;;
2259;SDS011;333;48.800;9.530;2022-09-09T03:09:22;4.87;;;1.80;;
2259;SDS011;333;48.800;9.530;2022-09-09T03:11:49;3.00;;;2.80;;
2259;SDS011;333;48.800;9.530;2022-09-09T03:14:16;2.30;;;2.10;;
2259;SDS011;333;48.800;9.530;2022-09-09T03:16:46;3.70;;;2.40;;
2259;SDS011;333;48.800;9.530;2022-09-09T03:19:13;4.33;;;2.40;;
2259;SDS011;333;48.800;9.530;2022-09-09T03:21:40;3.47;;;2.33;;
2259;SDS011;333;48.800;9.530;2022-09-09T03:24:09;2.90;;;2.63;;
2259;SDS011;333;48.800;9.530;2022-09-09T03:26:36;4.50;;;2.27;;
2259;SDS011;333;48.800;9.530;2022-09-09T03:29:05;2.93;;;2.43;;
2259;SDS011;333;48.800;9.530;2022-09-09T03:31:33;2.97;;;2.67;;
2259;SDS011;333;48.800;9.530;2022-09-09T03:34:00;4.10;;;2.90;;
2259;SDS011;333;48.800;9.530;2022-09-09T03:36:28;2.70;;;2.50;;
2259;SDS011;333;48.800;9.530;2022-09-09T03:38:55;2.37;;;2.20;;
2259;SDS011;333;48.800;9.530;2022-09-09T03:41:24;1.93;;;1.83;;
2259;SDS011;333;48.800;9.530;2022-09-09T03:43:52;6.83;;;3.10;;
2259;SDS011;333;48.800;9.530;2022-09-09T03:46:20;3.50;;;2.30;;
2259;SDS011;333;48.800;9.530;2022-09-09T03:48:48;2.70;;;2.50;;
2259;SDS011;333;48.800;9.530;2022-09-09T03:51:15;2.67;;;2.43;;
2259;SDS011;333;48.800;9.530;2022-09-09T03:53:43;2.57;;;2.37;;
2259;SDS011;333;48.800;9.530;2022-09-09T03:56:11;2.60;;;2.40;;
2259;SDS011;333;48.800;9.530;2022-09-09T03:58:40;3.00;;;2.70;;
2259;SDS011;333;48.800;9.530;2022-09-09T04:01:08;3.20;;;2.90;;
2259;SDS011;333;48.800;9.530;2022-09-09T04:03:35;3.13;;;2.83;;
2259;SDS011;333;48.800;9.530;2022-09-09T04:06:03;3.50;;;2.43;;
2259;SDS011;333;48.800;9.530;2022-09-09T04:08:32;3.03;;;2.40;;
2259;SDS011;333;48.800;9.530;2022-09-09T04:11:00;3.57;;;2.90;;
2259;SDS011;333;48.800;9.530;2022-09-09T04:13:31;2.97;;;2.37;;
2259;SDS011;333;48.800;9.530;2022-09-09T04:16:01;1.90;;;1.80;;
2259;SDS011;333;48.800;9.530;2022-09-09T04:18:28;3.10;;;2.50;;
2259;SDS011;333;48.800;9.530;2022-09-09T04:20:56;2.10;;;1.90;;
2259;SDS011;333;48.800;9.530;2022-09-09T04:23:23;3.23;;;2.20;;
2259;SDS011;333;48.800;9.530;2022-09-09T04:25:51;4.20;;;2.90;;
2259;SDS011;333;48.800;9.530;2022-09-09T04:28:19;3.30;;;2.40;;
2259;SDS011;333;48.800;9.530;2022-09-09T04:30:46;3.00;;;2.37;;
2259;SDS011;333;48.800;9.530;2022-09-09T04:33:15;3.53;;;2.30;;
2259;SDS011;333;48.800;9.530;2022-09-09T04:35:43;3.23;;;2.30;;
2259;SDS011;333;48.800;9.530;2022-09-09T04:38:11;2.53;;;2.30;;
2259;SDS011;333;48.800;9.530;2022-09-09T04:40:38;4.50;;;2.20;;
2259;SDS011;333;48.800;9.530;2022-09-09T04:43:08;3.40;;;2.73;;
2259;SDS011;333;48.800;9.530;2022-09-09T04:45:35;3.13;;;2.33;;
2259;SDS011;333;48.800;9.530;2022-09-09T04:48:02;17.07;;;9.03;;
2259;SDS011;333;48.800;9.530;2022-09-09T04:50:31;14.37;;;8.80;;
2259;SDS011;333;48.800;9.530;2022-09-09T04:52:59;11.60;;;5.40;;
2259;SDS011;333;48.800;9.530;2022-09-09T04:55:27;6.70;;;4.00;;
2259;SDS011;333;48.800;9.530;2022-09-09T04:57:55;5.97;;;3.40;;
2259;SDS011;333;48.800;9.530;2022-09-09T05:00:23;8.80;;;3.40;;
2259;SDS011;333;48.800;9.530;2022-09-09T05:02:50;4.33;;;2.63;;
2259;SDS011;333;48.800;9.530;2022-09-09T05:05:17;2.27;;;1.93;;
2259;SDS011;333;48.800;9.530;2022-09-09T05:07:46;3.13;;;2.10;;
2259;SDS011;333;48.800;9.530;2022-09-09T05:10:13;3.57;;;2.07;;
2259;SDS011;333;48.800;9.530;2022-09-09T05:12:41;3.70;;;3.17;;
2259;SDS011;333;48.800;9.530;2022-09-09T05:15:09;2.17;;;1.90;;
2259;SDS011;333;48.800;9.530;2022-09-09T05:17:36;2.50;;;2.00;;
2259;SDS011;333;48.800;9.530;2022-09-09T05:20:04;2.30;;;2.10;;
2259;SDS011;333;48.800;9.530;2022-09-09T05:22:31;3.33;;;2.00;;
2259;SDS011;333;48.800;9.530;2022-09-09T05:25:00;2.43;;;1.60;;
2259;SDS011;333;48.800;9.530;2022-09-09T05:27:27;3.03;;;2.20;;
2259;SDS011;333;48.800;9.530;2022-09-09T05:29:56;2.17;;;1.90;;
2259;SDS011;333;48.800;9.530;2022-09-09T05:32:23;4.10;;;2.03;;
2259;SDS011;333;48.800;9.530;2022-09-09T05:34:51;2.63;;;1.90;;
2259;SDS011;333;48.800;9.530;2022-09-09T05:37:18;2.30;;;2.10;;
2259;SDS011;333;48.800;9.530;2022-09-09T05:39:45;2.20;;;1.87;;
2259;SDS011;333;48.800;9.530;2022-09-09T05:42:14;4.20;;;2.57;;
2259;SDS011;333;48.800;9.530;2022-09-09T05:44:41;2.13;;;1.80;;
2259;SDS011;333;48.800;9.530;2022-09-09T05:47:08;3.10;;;2.20;;
2259;SDS011;333;48.800;9.530;2022-09-09T05:49:36;2.40;;;2.17;;
2259;SDS011;333;48.800;9.530;2022-09-09T05:52:03;1.93;;;1.83;;
2259;SDS011;333;48.800;9.530;2022-09-09T05:54:31;2.90;;;2.10;;
2259;SDS011;333;48.800;9.530;2022-09-09T05:56:58;2.13;;;1.83;;
2259;SDS011;333;48.800;9.530;2022-09-09T05:59:27;2.83;;;2.30;;
2259;SDS011;333;48.800;9.530;2022-09-09T06:01:54;1.70;;;1.60;;
2259;SDS011;333;48.800;9.530;2022-09-09T06:04:21;2.00;;;1.70;;
2259;SDS011;333;48.800;9.530;2022-09-09T06:06:49;2.53;;;1.87;;
2259;SDS011;333;48.800;9.530;2022-09-09T06:09:17;2.70;;;2.20;;
2259;SDS011;333;48.800;9.530;2022-09-09T06:11:44;3.30;;;1.80;;
2259;SDS011;333;48.800;9.530;2022-09-09T06:14:11;2.97;;;2.30;;
2259;SDS011;333;48.800;9.530;2022-09-09T06:16:41;5.17;;;2.23;;
2259;SDS011;333;48.800;9.530;2022-09-09T06:19:09;2.63;;;2.00;;
2259;SDS011;333;48.800;9.530;2022-09-09T06:21:37;3.10;;;2.10;;
2259;SDS011;333;48.800;9.530;2022-09-09T06:24:05;3.83;;;2.10;;
2259;SDS011;333;48.800;9.530;2022-09-09T06:26:33;3.87;;;2.23;;
2259;SDS011;333;48.800;9.530;2022-09-09T06:29:01;2.90;;;2.30;;
2259;SDS011;333;48.800;9.530;2022-09-09T06:31:29;2.30;;;2.03;;
2259;SDS011;333;48.800;9.530;2022-09-09T06:33:58;4.57;;;2.40;;
2259;SDS011;333;48.800;9.530;2022-09-09T06:36:26;2.20;;;2.00;;
2259;SDS011;333;48.800;9.530;2022-09-09T06:38:54;4.80;;;1.90;;
2259;SDS011;333;48.800;9.530;2022-09-09T06:41:22;2.20;;;1.97;;
2259;SDS011;333;48.800;9.530;2022-09-09T06:43:51;2.00;;;1.90;;
2259;SDS011;333;48.800;9.530;2022-09-09T06:46:18;4.47;;;2.10;;
2259;SDS011;333;48.800;9.530;2022-09-09T06:48:46;3.00;;;2.70;;
2259;SDS011;333;48.800;9.530;2022-09-09T06:51:16;2.90;;;2.10;;
2259;SDS011;333;48.800;9.530;2022-09-09T06:53:44;3.17;;;2.70;;
2259;SDS011;333;48.800;9.530;2022-09-09T06:56:17;4.63;;;2.07;;
2259;SDS011;333;48.800;9.530;2022-09-09T06:58:45;3.73;;;2.03;;
2259;SDS011;333;48.800;9.530;2022-09-09T07:01:14;4.50;;;2.10;;
2259;SDS011;333;48.800;9.530;2022-09-09T07:03:42;2.60;;;2.33;;
2259;SDS011;333;48.800;9.530;2022-09-09T07:06:13;3.77;;;2.13;;
2259;SDS011;333;48.800;9.530;2022-09-09T07:08:43;4.40;;;2.57;;
2259;SDS011;333;48.800;9.530;2022-09-09T07:11:10;6.07;;;2.43;;
2259;SDS011;333;48.800;9.530;2022-09-09T07:13:37;2.77;;;2.13;;
2259;SDS011;333;48.800;9.530;2022-09-09T07:16:05;2.57;;;1.83;;
2259;SDS011;333;48.800;9.530;2022-09-09T07:18:33;2.53;;;2.33;;
2259;SDS011;333;48.800;9.530;2022-09-09T07:21:00;4.80;;;2.30;;
2259;SDS011;333;48.800;9.530;2022-09-09T07:23:28;2.83;;;2.33;;
2259;SDS011;333;48.800;9.530;2022-09-09T07:25:56;2.50;;;2.30;;
2259;SDS011;333;48.800;9.530;2022-09-09T07:28:24;3.40;;;3.10;;
2259;SDS011;333;48.800;9.530;2022-09-09T07:30:53;2.50;;;1.97;;
2259;SDS011;333;48.800;9.530;2022-09-09T07:33:20;3.57;;;1.63;;
2259;SDS011;333;48.800;9.530;2022-09-09T07:35:47;2.00;;;1.80;;
2259;SDS011;333;48.800;9.530;2022-09-09T07:38:14;1.97;;;1.77;;
2259;SDS011;333;48.800;9.530;2022-09-09T07:40:42;3.23;;;1.50;;
2259;SDS011;333;48.800;9.530;2022-09-09T07:43:11;1.40;;;1.30;;
2259;SDS011;333;48.800;9.530;2022-09-09T07:45:38;2.53;;;1.47;;
2259;SDS011;333;48.800;9.530;2022-09-09T07:48:07;5.30;;;1.63;;
2259;SDS011;333;48.800;9.530;2022-09-09T07:50:36;2.60;;;1.90;;
2259;SDS011;333;48.800;9.530;2022-09-09T07:53:04;4.07;;;2.03;;
2259;SDS011;333;48.800;9.530;2022-09-09T07:55:31;4.17;;;1.80;;
2259;SDS011;333;48.800;9.530;2022-09-09T07:57:58;4.10;;;1.80;;
2259;SDS011;333;48.800;9.530;2022-09-09T08:00:27;1.77;;;1.60;;
2259;SDS011;333;48.800;9.530;2022-09-09T08:02:54;2.10;;;1.60;;
2259;SDS011;333;48.800;9.530;2022-09-09T08:05:21;4.20;;;1.97;;
2259;SDS011;333;48.800;9.530;2022-09-09T08:07:49;1.63;;;1.47;;
2259;SDS011;333;48.800;9.530;2022-09-09T08:10:16;2.57;;;1.70;;
2259;SDS011;333;48.800;9.530;2022-09-09T08:12:43;2.30;;;1.30;;
2259;SDS011;333;48.800;9.530;2022-09-09T08:15:11;3.50;;;1.50;;
2259;SDS011;333;48.800;9.530;2022-09-09T08:17:39;2.93;;;1.63;;
2259;SDS011;333;48.800;9.530;2022-09-09T08:20:08;3.47;;;1.73;;
2259;SDS011;333;48.800;9.530;2022-09-09T08:22:36;2.37;;;1.67;;
2259;SDS011;333;48.800;9.530;2022-09-09T08:25:04;2.77;;;1.50;;
2259;SDS011;333;48.800;9.530;2022-09-09T08:27:33;3.10;;;2.40;;
2259;SDS011;333;48.800;9.530;2022-09-09T08:30:02;1.50;;;1.40;;
2259;SDS011;333;48.800;9.530;2022-09-09T08:32:29;3.17;;;1.30;;
2259;SDS011;333;48.800;9.530;2022-09-09T08:34:58;2.37;;;1.80;;
2259;SDS011;333;48.800;9.530;2022-09-09T08:37:25;2.80;;;1.20;;
2259;SDS011;333;48.800;9.530;2022-09-09T08:39:52;1.13;;;1.03;;
2259;SDS011;333;48.800;9.530;2022-09-09T08:42:27;1.83;;;1.60;;
2259;SDS011;333;48.800;9.530;2022-09-09T08:47:42;4.70;;;1.40;;
2259;SDS011;333;48.800;9.530;2022-09-09T08:50:16;2.47;;;1.60;;
2259;SDS011;333;48.800;9.530;2022-09-09T08:52:47;1.87;;;1.30;;
2259;SDS011;333;48.800;9.530;2022-09-09T08:55:20;2.97;;;1.43;;
2259;SDS011;333;48.800;9.530;2022-09-09T08:57:48;1.87;;;1.53;;
2259;SDS011;333;48.800;9.530;2022-09-09T09:00:16;2.87;;;1.27;;
2259;SDS011;333;48.800;9.530;2022-09-09T09:02:46;1.97;;;1.33;;
2259;SDS011;333;48.800;9.530;2022-09-09T09:05:21;4.43;;;1.40;;
2259;SDS011;333;48.800;9.530;2022-09-09T09:07:55;2.77;;;1.70;;
2259;SDS011;333;48.800;9.530;2022-09-09T09:10:31;2.63;;;1.23;;
2259;SDS011;333;48.800;9.530;2022-09-09T09:13:00;1.67;;;1.20;;
2259;SDS011;333;48.800;9.530;2022-09-09T09:15:30;1.73;;;1.63;;
2259;SDS011;333;48.800;9.530;2022-09-09T09:18:01;1.30;;;1.20;;
2259;SDS011;333;48.800;9.530;2022-09-09T09:20:32;1.40;;;1.30;;
2259;SDS011;333;48.800;9.530;2022-09-09T09:23:01;1.47;;;1.33;;
2259;SDS011;333;48.800;9.530;2022-09-09T09:25:31;1.87;;;1.20;;
2259;SDS011;333;48.800;9.530;2022-09-09T09:28:00;2.60;;;1.30;;
2259;SDS011;333;48.800;9.530;2022-09-09T09:30:31;2.70;;;1.37;;
2259;SDS011;333;48.800;9.530;2022-09-09T09:33:02;1.30;;;1.13;;
2259;SDS011;333;48.800;9.530;2022-09-09T09:35:34;2.70;;;1.30;;
2259;SDS011;333;48.800;9.530;2022-09-09T09:38:01;3.30;;;1.47;;
2259;SDS011;333;48.800;9.530;2022-09-09T09:40:28;2.87;;;1.30;;
2259;SDS011;333;48.800;9.530;2022-09-09T09:42:56;1.90;;;1.33;;
2259;SDS011;333;48.800;9.530;2022-09-09T09:45:26;6.13;;;1.90;;
2259;SDS011;333;48.800;9.530;2022-09-09T09:47:58;9.40;;;1.33;;
2259;SDS011;333;48.800;9.530;2022-09-09T09:50:25;3.53;;;0.93;;
2259;SDS011;333;48.800;9.530;2022-09-09T09:52:57;1.87;;;1.40;;
2259;SDS011;333;48.800;9.530;2022-09-09T09:55:25;0.80;;;0.80;;
2259;SDS011;333;48.800;9.530;2022-09-09T09:57:52;2.10;;;1.23;;
2259;SDS011;333;48.800;9.530;2022-09-09T10:00:20;0.90;;;0.90;;
2259;SDS011;333;48.800;9.530;2022-09-09T10:02:48;1.20;;;0.90;;
2259;SDS011;333;48.800;9.530;2022-09-09T10:05:18;1.83;;;1.20;;
2259;SDS011;333;48.800;9.530;2022-09-09T10:07:45;2.17;;;1.20;;
2259;SDS011;333;48.800;9.530;2022-09-09T10:10:15;1.30;;;1.20;;
2259;SDS011;333;48.800;9.530;2022-09-09T10:12:46;3.17;;;1.10;;
2259;SDS011;333;48.800;9.530;2022-09-09T10:15:22;1.80;;;0.57;;
2259;SDS011;333;48.800;9.530;2022-09-09T10:17:54;4.73;;;1.03;;
2259;SDS011;333;48.800;9.530;2022-09-09T10:20:29;1.00;;;0.80;;
2259;SDS011;333;48.800;9.530;2022-09-09T10:23:02;2.00;;;1.77;;
2259;SDS011;333;48.800;9.530;2022-09-09T10:25:36;3.03;;;1.07;;
2259;SDS011;333;48.800;9.530;2022-09-09T10:28:25;1.43;;;0.93;;
2259;SDS011;333;48.800;9.530;2022-09-09T10:30:57;1.60;;;1.10;;
2259;SDS011;333;48.800;9.530;2022-09-09T10:33:30;1.50;;;0.80;;
2259;SDS011;333;48.800;9.530;2022-09-09T10:36:01;5.20;;;1.70;;
2259;SDS011;333;48.800;9.530;2022-09-09T10:38:37;3.87;;;0.90;;
2259;SDS011;333;48.800;9.530;2022-09-09T10:41:13;1.40;;;1.00;;
2259;SDS011;333;48.800;9.530;2022-09-09T10:43:53;1.20;;;1.10;;
2259;SDS011;333;48.800;9.530;2022-09-09T10:46:26;1.80;;;1.23;;
2259;SDS011;333;48.800;9.530;2022-09-09T10:49:01;1.63;;;1.53;;
2259;SDS011;333;48.800;9.530;2022-09-09T10:51:33;1.43;;;0.77;;
2259;SDS011;333;48.800;9.530;2022-09-09T10:54:22;3.93;;;1.20;;
2259;SDS011;333;48.800;9.530;2022-09-09T10:56:54;1.27;;;1.17;;
2259;SDS011;333;48.800;9.530;2022-09-09T10:59:23;4.03;;;0.90;;
2259;SDS011;333;48.800;9.530;2022-09-09T11:01:53;1.43;;;0.93;;
2259;SDS011;333;48.800;9.530;2022-09-09T11:04:25;1.20;;;0.93;;
2259;SDS011;333;48.800;9.530;2022-09-09T11:06:56;1.07;;;0.83;;
2259;SDS011;333;48.800;9.530;2022-09-09T11:09:24;2.00;;;1.13;;
2259;SDS011;333;48.800;9.530;2022-09-09T11:11:54;0.97;;;0.80;;
2259;SDS011;333;48.800;9.530;2022-09-09T11:14:24;2.07;;;1.37;;
2259;SDS011;333;48.800;9.530;2022-09-09T11:16:55;1.63;;;1.20;;
2259;SDS011;333;48.800;9.530;2022-09-09T11:19:24;2.40;;;1.00;;
2259;SDS011;333;48.800;9.530;2022-09-09T11:21:53;1.80;;;0.80;;
2259;SDS011;333;48.800;9.530;2022-09-09T11:24:23;3.97;;;1.20;;
2259;SDS011;333;48.800;9.530;2022-09-09T11:26:54;2.20;;;1.00;;
2259;SDS011;333;48.800;9.530;2022-09-09T11:29:27;1.23;;;1.10;;
2259;SDS011;333;48.800;9.530;2022-09-09T11:32:00;1.20;;;1.00;;
2259;SDS011;333;48.800;9.530;2022-09-09T11:34:44;1.00;;;0.80;;
2259;SDS011;333;48.800;9.530;2022-09-09T11:37:20;1.10;;;0.93;;
2259;SDS011;333;48.800;9.530;2022-09-09T11:42:32;1.27;;;0.80;;
2259;SDS011;333;48.800;9.530;2022-09-09T11:45:08;1.93;;;1.30;;
2259;SDS011;333;48.800;9.530;2022-09-09T11:47:36;2.60;;;0.97;;
2259;SDS011;333;48.800;9.530;2022-09-09T11:50:07;1.37;;;0.67;;
2259;SDS011;333;48.800;9.530;2022-09-09T11:52:36;2.50;;;1.30;;
2259;SDS011;333;48.800;9.530;2022-09-09T11:55:08;2.20;;;0.87;;
2259;SDS011;333;48.800;9.530;2022-09-09T11:57:37;2.30;;;1.30;;
2259;SDS011;333;48.800;9.530;2022-09-09T12:00:05;5.60;;;1.33;;
2259;SDS011;333;48.800;9.530;2022-09-09T12:02:33;5.30;;;1.97;;
2259;SDS011;333;48.800;9.530;2022-09-09T12:05:02;3.93;;;1.43;;
2259;SDS011;333;48.800;9.530;2022-09-09T12:07:33;3.30;;;1.43;;
2259;SDS011;333;48.800;9.530;2022-09-09T12:10:03;1.47;;;1.00;;
2259;SDS011;333;48.800;9.530;2022-09-09T12:12:32;1.73;;;1.20;;
2259;SDS011;333;48.800;9.530;2022-09-09T12:15:03;2.03;;;1.33;;
2259;SDS011;333;48.800;9.530;2022-09-09T12:17:30;2.77;;;1.37;;
2259;SDS011;333;48.800;9.530;2022-09-09T12:20:08;1.57;;;1.40;;
2259;SDS011;333;48.800;9.530;2022-09-09T12:22:41;4.37;;;1.60;;
2259;SDS011;333;48.800;9.530;2022-09-09T12:25:15;2.07;;;1.17;;
2259;SDS011;333;48.800;9.530;2022-09-09T12:27:44;0.80;;;0.70;;
2259;SDS011;333;48.800;9.530;2022-09-09T12:30:15;1.50;;;1.40;;
2259;SDS011;333;48.800;9.530;2022-09-09T12:32:42;2.87;;;1.60;;
2259;SDS011;333;48.800;9.530;2022-09-09T12:35:11;2.20;;;1.10;;
2259;SDS011;333;48.800;9.530;2022-09-09T12:37:39;1.50;;;1.03;;
2259;SDS011;333;48.800;9.530;2022-09-09T12:40:18;1.20;;;0.87;;
2259;SDS011;333;48.800;9.530;2022-09-09T12:42:46;2.40;;;1.30;;
2259;SDS011;333;48.800;9.530;2022-09-09T12:45:18;3.73;;;1.57;;
2259;SDS011;333;48.800;9.530;2022-09-09T12:47:47;2.40;;;1.13;;
2259;SDS011;333;48.800;9.530;2022-09-09T12:50:16;2.00;;;1.17;;
2259;SDS011;333;48.800;9.530;2022-09-09T12:52:44;3.20;;;1.10;;
2259;SDS011;333;48.800;9.530;2022-09-09T12:55:16;2.87;;;1.10;;
2259;SDS011;333;48.800;9.530;2022-09-09T12:57:43;1.17;;;0.93;;
2259;SDS011;333;48.800;9.530;2022-09-09T13:00:12;1.53;;;1.00;;
2259;SDS011;333;48.800;9.530;2022-09-09T13:02:50;1.80;;;0.93;;
2259;SDS011;333;48.800;9.530;2022-09-09T13:05:18;1.47;;;0.90;;
2259;SDS011;333;48.800;9.530;2022-09-09T13:07:46;2.30;;;0.90;;
2259;SDS011;333;48.800;9.530;2022-09-09T13:10:14;2.00;;;1.10;;
2259;SDS011;333;48.800;9.530;2022-09-09T13:12:41;2.03;;;1.23;;
2259;SDS011;333;48.800;9.530;2022-09-09T13:15:12;3.03;;;0.90;;
2259;SDS011;333;48.800;9.530;2022-09-09T13:17:41;1.33;;;0.93;;
2259;SDS011;333;48.800;9.530;2022-09-09T13:20:17;1.77;;;1.07;;
2259;SDS011;333;48.800;9.530;2022-09-09T13:22:44;2.40;;;1.00;;
2259;SDS011;333;48.800;9.530;2022-09-09T13:25:18;1.00;;;0.70;;
2259;SDS011;333;48.800;9.530;2022-09-09T13:27:51;1.53;;;0.80;;
2259;SDS011;333;48.800;9.530;2022-09-09T13:30:20;1.20;;;1.10;;
2259;SDS011;333;48.800;9.530;2022-09-09T13:32:59;0.50;;;0.50;;
2259;SDS011;333;48.800;9.530;2022-09-09T13:35:28;1.83;;;0.90;;
2259;SDS011;333;48.800;9.530;2022-09-09T13:37:55;1.07;;;0.87;;
2259;SDS011;333;48.800;9.530;2022-09-09T13:40:23;3.40;;;1.13;;
2259;SDS011;333;48.800;9.530;2022-09-09T13:42:51;2.30;;;0.83;;
2259;SDS011;333;48.800;9.530;2022-09-09T13:45:20;0.70;;;0.70;;
2259;SDS011;333;48.800;9.530;2022-09-09T13:47:48;1.53;;;1.00;;
2259;SDS011;333;48.800;9.530;2022-09-09T13:50:18;2.10;;;1.00;;
2259;SDS011;333;48.800;9.530;2022-09-09T13:52:47;1.90;;;1.17;;
2259;SDS011;333;48.800;9.530;2022-09-09T13:55:16;1.07;;;0.70;;
2259;SDS011;333;48.800;9.530;2022-09-09T13:57:50;2.07;;;0.73;;
2259;SDS011;333;48.800;9.530;2022-09-09T14:00:17;1.10;;;0.70;;
2259;SDS011;333;48.800;9.530;2022-09-09T14:02:45;1.63;;;1.10;;
2259;SDS011;333;48.800;9.530;2022-09-09T14:05:12;3.53;;;0.80;;
2259;SDS011;333;48.800;9.530;2022-09-09T14:07:40;1.47;;;0.60;;
2259;SDS011;333;48.800;9.530;2022-09-09T14:10:08;1.90;;;0.97;;
2259;SDS011;333;48.800;9.530;2022-09-09T14:12:36;1.33;;;0.80;;
2259;SDS011;333;48.800;9.530;2022-09-09T14:15:03;0.70;;;0.60;;
2259;SDS011;333;48.800;9.530;2022-09-09T14:17:31;1.43;;;0.50;;
2259;SDS011;333;48.800;9.530;2022-09-09T14:19:59;0.70;;;0.40;;
2259;SDS011;333;48.800;9.530;2022-09-09T14:22:26;1.17;;;0.53;;
2259;SDS011;333;48.800;9.530;2022-09-09T14:24:53;3.50;;;0.97;;
2259;SDS011;333;48.800;9.530;2022-09-09T14:27:24;2.00;;;0.80;;
2259;SDS011;333;48.800;9.530;2022-09-09T14:29:52;1.70;;;0.70;;
2259;SDS011;333;48.800;9.530;2022-09-09T14:32:19;0.93;;;0.83;;
2259;SDS011;333;48.800;9.530;2022-09-09T14:34:47;3.40;;;0.80;;
2259;SDS011;333;48.800;9.530;2022-09-09T14:37:15;2.47;;;0.90;;
2259;SDS011;333;48.800;9.530;2022-09-09T14:39:42;1.30;;;0.80;;
2259;SDS011;333;48.800;9.530;2022-09-09T14:42:09;1.80;;;0.70;;
2259;SDS011;333;48.800;9.530;2022-09-09T14:44:38;1.43;;;0.80;;
2259;SDS011;333;48.800;9.530;2022-09-09T14:47:05;0.70;;;0.70;;
2259;SDS011;333;48.800;9.530;2022-09-09T14:49:34;1.30;;;0.70;;
2259;SDS011;333;48.800;9.530;2022-09-09T14:52:02;1.87;;;0.70;;
2259;SDS011;333;48.800;9.530;2022-09-09T14:54:29;1.70;;;0.90;;
2259;SDS011;333;48.800;9.530;2022-09-09T14:56:57;1.97;;;0.80;;
2259;SDS011;333;48.800;9.530;2022-09-09T14:59:24;1.17;;;0.80;;
2259;SDS011;333;48.800;9.530;2022-09-09T15:01:53;0.70;;;0.60;;
2259;SDS011;333;48.800;9.530;2022-09-09T15:04:21;2.63;;;0.60;;
2259;SDS011;333;48.800;9.530;2022-09-09T15:06:48;3.47;;;0.70;;
2259;SDS011;333;48.800;9.530;2022-09-09T15:09:17;0.50;;;0.40;;
2259;SDS011;333;48.800;9.530;2022-09-09T15:11:44;1.33;;;0.57;;
2259;SDS011;333;48.800;9.530;2022-09-09T15:14:11;1.20;;;0.70;;
2259;SDS011;333;48.800;9.530;2022-09-09T15:16:39;1.50;;;1.33;;
2259;SDS011;333;48.800;9.530;2022-09-09T15:19:08;1.17;;;0.60;;
2259;SDS011;333;48.800;9.530;2022-09-09T15:21:35;1.37;;;0.50;;
2259;SDS011;333;48.800;9.530;2022-09-09T15:24:03;0.83;;;0.50;;
2259;SDS011;333;48.800;9.530;2022-09-09T15:26:32;0.50;;;0.50;;
2259;SDS011;333;48.800;9.530;2022-09-09T15:28:59;1.60;;;0.60;;
2259;SDS011;333;48.800;9.530;2022-09-09T15:31:27;0.80;;;0.50;;
2259;SDS011;333;48.800;9.530;2022-09-09T15:33:56;1.10;;;1.00;;
2259;SDS011;333;48.800;9.530;2022-09-09T15:36:27;1.87;;;0.60;;
2259;SDS011;333;48.800;9.530;2022-09-09T15:38:55;1.20;;;0.60;;
2259;SDS011;333;48.800;9.530;2022-09-09T15:41:22;0.70;;;0.70;;
2259;SDS011;333;48.800;9.530;2022-09-09T15:43:50;0.77;;;0.50;;
2259;SDS011;333;48.800;9.530;2022-09-09T15:46:28;0.53;;;0.43;;
2259;SDS011;333;48.800;9.530;2022-09-09T15:48:56;2.33;;;0.63;;
2259;SDS011;333;48.800;9.530;2022-09-09T15:51:24;2.30;;;1.27;;
2259;SDS011;333;48.800;9.530;2022-09-09T15:53:57;0.93;;;0.70;;